Archival Weather

Chicago O'Hare International

Chicago, Illinois (KORD)

Report from: Saturday, March 31, 2012 10:51 PM CDT
Current time: Friday, June 21, 2024 7:59 PM CDT

Current weather – Weather history – Daily summaries
Weather forecast

Temperature6.7°C (44.1°F)
Wind chill5.3°C (41.5°F)
Dew point2.8°C (37.0°F)
Winds 4 kts (2.1 m/s, 4.6 mph) East-Southeast (120°)
Visibility7 mi. (11.3 km)
Clouds Few clouds 6,000 ft. (1,829 m)
Scattered clouds 16,000 ft. (4,877 m)
Scattered clouds 25,000 ft. (7,620 m)
Altimeter29.84 in.Hg (1010 mB)
Relative humidity76 %
Density altitude-805 ft. (-245 m)
Sea-level pressure101.1 kPa (1011 mB, 29.85 in.Hg)
Remarks System requires maintenance
Automated weather observing station with precipitation discriminator
Flight conditions Visual Meteorological Conditions
Raw data2012-04-01 03:51 KORD 010351Z 12004KT 7SM FEW060 SCT160 SCT250 07/03 A2984 RMK AO2 SLP108 T00670028 $
An error has occurred. This application may no longer respond until reloaded. Reload 🗙